Morton, Pennsylvania
Current Conditions -  °F | °C
As of 10:54 PM on Friday 24 Oct 2014 (Local Time) from KPHL Reporting Station
Broken Clouds Broken Clouds  
Wind Chill: 59°   Ceiling: 25000
Heat Index: 59°   Visibility: 10mi
Dew Point: 37°   Wind: 8mph
Humidity: 44%   Direction: 300°WNW
Pressure: 29.88"   Gusts: NA
Location:  39.91°N, 75.32°W
Report Text: KPHL 250254Z 30007KT 10SM BKN250 15/03 A2988 RMK AO2 SLP118 T01500028 51009
Loading
Personal Weather Stations






























Interactive Weather Map
Tropical Storm Tracking
New forecast layout! Learn more

10-Day Weather Forecast

Advertisements
Track Severe Weather on mobile